Aérodrome :
LOGIN :

S'inscrire | Disclaimer

   EN    FR    IT 

 










Légende :    VFR   VFR Marginal   IFR   IFR Intensif   IFR Très Intensif
Visi : 
Plafond : 
>= 8 km
>= 3000ft
5 à 8 km
1000 à 3000 ft
1500m à 5 km
500 à 1000 ft
800 à 1500m
200 à 500 ft
< 800m
< 200 ft
Symboles :   Orages  Brouillard  Fortes neiges  Fortes précipitations  Vent > 20 kt
SIGMETs :   Divers  Orages  Givrage  Turbulence  Onde Orograph.  Cendres Volcan.






- Altitude de l'aérodrome : -11 ft
- Code IATA : AMS


EHAM - Amsterdam Schiphol

DERNIER METAR :
  • 280725Z 10007KT 6000 FEW006 05/03 Q1020 NOSIG

METARs EXPIRÉS :
  • 280655Z 10005KT 6000 FEW006 05/04 Q1019 NOSIG
  • 280625Z 10007KT 070V130 6000 SCT005 05/04 Q1019 NOSIG
  • 280555Z 09008KT 5000 BR SCT005 05/04 Q1019 TEMPO 4000
  • 280525Z 09007KT 5000 BR SCT005 05/04 Q1019 TEMPO 4000 BKN005
  • 280455Z 10005KT 070V130 5000 BR SCT005 05/04 Q1019 TEMPO 4000 BKN005

TAF TAF EHAM
Valide du 28 à 06h jusqu'au 29 à 12h UTC


280520Z 2806/2912 09006KT 5000 BR NSC
TEMPO 2806/2810 3500 BKN004
PROB30
TEMPO 2806/2809 0600 FG BKN002
BECMG 2810/2813 8000 NSW
BECMG 2816/2819 5000 BR
BECMG 2819/2822 3000 SCT003 BKN005
PROB30 2820/2907 2000 SCT002 BKN003
BECMG 2909/2912 8000 NSW SCT010



MET'MAP, la Météo Aéronautique d'un coup d'oeil ! - Copyright ORBIFLY Décembre 2007 - Disclaimer

ORBIFLY MET'MAP TEAM :

Programmation & Développement : Alexandra Zaïnal
Sur une idée originale de : Baudouin d'Aumeries
Assistance à la programmation : Marc-Olivier Méhu
Soutien technique & logistique : Manuel Goepfert

Contact : metmap@orbifly.com




SOURCES & CREDITS :

   NOAA